sensor_id;sensor_type;location;lat;lon;timestamp;P1;durP1;ratioP1;P2;durP2;ratioP2
1479;SDS011;732;51.698;4.886;2024-01-25T00:02:22;31.77;;;7.60;;
1479;SDS011;732;51.698;4.886;2024-01-25T00:04:51;42.90;;;8.13;;
1479;SDS011;732;51.698;4.886;2024-01-25T00:07:21;46.73;;;7.57;;
1479;SDS011;732;51.698;4.886;2024-01-25T00:09:49;33.03;;;7.67;;
1479;SDS011;732;51.698;4.886;2024-01-25T00:12:18;41.30;;;8.37;;
1479;SDS011;732;51.698;4.886;2024-01-25T00:14:47;42.90;;;7.37;;
1479;SDS011;732;51.698;4.886;2024-01-25T00:17:15;60.20;;;8.80;;
1479;SDS011;732;51.698;4.886;2024-01-25T00:19:43;45.90;;;7.80;;
1479;SDS011;732;51.698;4.886;2024-01-25T00:22:12;38.10;;;8.27;;
1479;SDS011;732;51.698;4.886;2024-01-25T00:24:42;38.47;;;9.50;;
1479;SDS011;732;51.698;4.886;2024-01-25T00:27:11;48.63;;;8.07;;
1479;SDS011;732;51.698;4.886;2024-01-25T00:29:39;52.83;;;9.20;;
1479;SDS011;732;51.698;4.886;2024-01-25T00:32:08;48.43;;;9.33;;
1479;SDS011;732;51.698;4.886;2024-01-25T00:34:36;55.30;;;10.40;;
1479;SDS011;732;51.698;4.886;2024-01-25T00:37:06;46.43;;;9.23;;
1479;SDS011;732;51.698;4.886;2024-01-25T00:39:36;45.93;;;8.90;;
1479;SDS011;732;51.698;4.886;2024-01-25T00:42:07;52.63;;;9.60;;
1479;SDS011;732;51.698;4.886;2024-01-25T00:44:42;47.17;;;9.20;;
1479;SDS011;732;51.698;4.886;2024-01-25T00:47:11;58.00;;;9.40;;
1479;SDS011;732;51.698;4.886;2024-01-25T00:49:40;50.30;;;8.90;;
1479;SDS011;732;51.698;4.886;2024-01-25T00:52:10;40.00;;;8.20;;
1479;SDS011;732;51.698;4.886;2024-01-25T00:54:40;54.73;;;9.07;;
1479;SDS011;732;51.698;4.886;2024-01-25T00:57:11;51.43;;;9.00;;
1479;SDS011;732;51.698;4.886;2024-01-25T00:59:40;42.63;;;8.70;;
1479;SDS011;732;51.698;4.886;2024-01-25T01:02:10;57.90;;;9.20;;
1479;SDS011;732;51.698;4.886;2024-01-25T01:04:41;45.37;;;9.47;;
1479;SDS011;732;51.698;4.886;2024-01-25T01:07:14;42.73;;;9.53;;
1479;SDS011;732;51.698;4.886;2024-01-25T01:09:43;49.63;;;9.80;;
1479;SDS011;732;51.698;4.886;2024-01-25T01:12:13;54.63;;;9.83;;
1479;SDS011;732;51.698;4.886;2024-01-25T01:14:43;46.00;;;9.13;;
1479;SDS011;732;51.698;4.886;2024-01-25T01:17:11;51.43;;;9.97;;
1479;SDS011;732;51.698;4.886;2024-01-25T01:19:40;45.57;;;8.20;;
1479;SDS011;732;51.698;4.886;2024-01-25T01:22:09;56.17;;;9.87;;
1479;SDS011;732;51.698;4.886;2024-01-25T01:24:38;49.70;;;8.80;;
1479;SDS011;732;51.698;4.886;2024-01-25T01:27:06;41.87;;;8.10;;
1479;SDS011;732;51.698;4.886;2024-01-25T01:29:36;40.37;;;8.87;;
1479;SDS011;732;51.698;4.886;2024-01-25T01:32:05;42.57;;;8.27;;
1479;SDS011;732;51.698;4.886;2024-01-25T01:34:33;46.70;;;8.07;;
1479;SDS011;732;51.698;4.886;2024-01-25T01:37:02;49.67;;;10.00;;
1479;SDS011;732;51.698;4.886;2024-01-25T01:39:31;51.67;;;8.47;;
1479;SDS011;732;51.698;4.886;2024-01-25T01:42:00;39.50;;;7.37;;
1479;SDS011;732;51.698;4.886;2024-01-25T01:44:28;43.73;;;8.20;;
1479;SDS011;732;51.698;4.886;2024-01-25T01:46:58;47.23;;;9.80;;
1479;SDS011;732;51.698;4.886;2024-01-25T01:49:27;37.93;;;8.10;;
1479;SDS011;732;51.698;4.886;2024-01-25T01:51:56;53.40;;;8.23;;
1479;SDS011;732;51.698;4.886;2024-01-25T01:54:25;66.13;;;8.83;;
1479;SDS011;732;51.698;4.886;2024-01-25T01:56:54;36.70;;;7.10;;
1479;SDS011;732;51.698;4.886;2024-01-25T01:59:23;43.43;;;10.60;;
1479;SDS011;732;51.698;4.886;2024-01-25T02:01:52;48.77;;;7.73;;
1479;SDS011;732;51.698;4.886;2024-01-25T02:04:22;45.10;;;8.57;;
1479;SDS011;732;51.698;4.886;2024-01-25T02:07:10;38.23;;;8.20;;
1479;SDS011;732;51.698;4.886;2024-01-25T02:09:41;41.03;;;8.27;;
1479;SDS011;732;51.698;4.886;2024-01-25T02:12:09;43.67;;;8.77;;
1479;SDS011;732;51.698;4.886;2024-01-25T02:14:38;43.03;;;6.57;;
1479;SDS011;732;51.698;4.886;2024-01-25T02:17:06;48.93;;;7.40;;
1479;SDS011;732;51.698;4.886;2024-01-25T02:19:36;44.53;;;8.20;;
1479;SDS011;732;51.698;4.886;2024-01-25T02:22:05;36.17;;;7.37;;
1479;SDS011;732;51.698;4.886;2024-01-25T02:24:35;49.07;;;8.60;;
1479;SDS011;732;51.698;4.886;2024-01-25T02:27:04;39.57;;;7.97;;
1479;SDS011;732;51.698;4.886;2024-01-25T02:29:33;48.07;;;7.93;;
1479;SDS011;732;51.698;4.886;2024-01-25T02:32:02;43.50;;;7.60;;
1479;SDS011;732;51.698;4.886;2024-01-25T02:34:31;41.73;;;8.10;;
1479;SDS011;732;51.698;4.886;2024-01-25T02:37:00;38.80;;;7.77;;
1479;SDS011;732;51.698;4.886;2024-01-25T02:39:29;46.50;;;9.10;;
1479;SDS011;732;51.698;4.886;2024-01-25T02:41:59;33.53;;;7.00;;
1479;SDS011;732;51.698;4.886;2024-01-25T02:44:27;38.60;;;6.93;;
1479;SDS011;732;51.698;4.886;2024-01-25T02:46:56;42.37;;;7.40;;
1479;SDS011;732;51.698;4.886;2024-01-25T02:49:24;46.30;;;8.43;;
1479;SDS011;732;51.698;4.886;2024-01-25T02:51:53;38.67;;;7.37;;
1479;SDS011;732;51.698;4.886;2024-01-25T02:54:22;55.03;;;9.23;;
1479;SDS011;732;51.698;4.886;2024-01-25T02:56:50;43.00;;;8.87;;
1479;SDS011;732;51.698;4.886;2024-01-25T02:59:20;60.67;;;11.40;;
1479;SDS011;732;51.698;4.886;2024-01-25T03:01:49;38.20;;;8.87;;
1479;SDS011;732;51.698;4.886;2024-01-25T03:04:17;45.80;;;8.20;;
1479;SDS011;732;51.698;4.886;2024-01-25T03:06:46;52.70;;;8.80;;
1479;SDS011;732;51.698;4.886;2024-01-25T03:09:16;41.80;;;7.47;;
1479;SDS011;732;51.698;4.886;2024-01-25T03:11:45;59.13;;;8.20;;
1479;SDS011;732;51.698;4.886;2024-01-25T03:14:13;56.47;;;9.60;;
1479;SDS011;732;51.698;4.886;2024-01-25T03:16:43;39.80;;;8.30;;
1479;SDS011;732;51.698;4.886;2024-01-25T03:19:12;55.17;;;9.33;;
1479;SDS011;732;51.698;4.886;2024-01-25T03:21:40;44.17;;;8.73;;
1479;SDS011;732;51.698;4.886;2024-01-25T03:24:09;49.40;;;9.63;;
1479;SDS011;732;51.698;4.886;2024-01-25T03:26:38;44.17;;;8.63;;
1479;SDS011;732;51.698;4.886;2024-01-25T03:29:07;51.13;;;8.47;;
1479;SDS011;732;51.698;4.886;2024-01-25T03:31:35;44.40;;;7.90;;
1479;SDS011;732;51.698;4.886;2024-01-25T03:34:06;38.97;;;7.90;;
1479;SDS011;732;51.698;4.886;2024-01-25T03:36:35;41.50;;;8.40;;
1479;SDS011;732;51.698;4.886;2024-01-25T03:39:04;47.50;;;8.20;;
1479;SDS011;732;51.698;4.886;2024-01-25T03:41:33;61.80;;;10.80;;
1479;SDS011;732;51.698;4.886;2024-01-25T03:44:02;51.93;;;9.47;;
1479;SDS011;732;51.698;4.886;2024-01-25T03:46:30;49.20;;;9.80;;
1479;SDS011;732;51.698;4.886;2024-01-25T03:48:59;40.07;;;8.40;;
1479;SDS011;732;51.698;4.886;2024-01-25T03:51:29;48.70;;;8.10;;
1479;SDS011;732;51.698;4.886;2024-01-25T03:53:57;42.50;;;8.73;;
1479;SDS011;732;51.698;4.886;2024-01-25T03:56:26;50.97;;;8.60;;
1479;SDS011;732;51.698;4.886;2024-01-25T03:58:54;57.20;;;8.70;;
1479;SDS011;732;51.698;4.886;2024-01-25T04:01:23;42.63;;;9.13;;
1479;SDS011;732;51.698;4.886;2024-01-25T04:03:57;51.13;;;10.37;;
1479;SDS011;732;51.698;4.886;2024-01-25T04:06:26;57.60;;;10.13;;
1479;SDS011;732;51.698;4.886;2024-01-25T04:08:56;53.83;;;10.40;;
1479;SDS011;732;51.698;4.886;2024-01-25T04:11:24;50.03;;;10.23;;
1479;SDS011;732;51.698;4.886;2024-01-25T04:13:54;59.03;;;10.07;;
1479;SDS011;732;51.698;4.886;2024-01-25T04:16:23;47.77;;;9.80;;
1479;SDS011;732;51.698;4.886;2024-01-25T04:18:52;59.57;;;10.03;;
1479;SDS011;732;51.698;4.886;2024-01-25T04:21:20;57.33;;;10.27;;
1479;SDS011;732;51.698;4.886;2024-01-25T04:23:49;52.37;;;9.17;;
1479;SDS011;732;51.698;4.886;2024-01-25T04:26:19;50.67;;;9.70;;
1479;SDS011;732;51.698;4.886;2024-01-25T04:28:47;46.57;;;8.73;;
1479;SDS011;732;51.698;4.886;2024-01-25T04:31:16;54.27;;;8.50;;
1479;SDS011;732;51.698;4.886;2024-01-25T04:33:46;45.03;;;9.20;;
1479;SDS011;732;51.698;4.886;2024-01-25T04:36:15;38.80;;;9.27;;
1479;SDS011;732;51.698;4.886;2024-01-25T04:38:43;57.40;;;10.30;;
1479;SDS011;732;51.698;4.886;2024-01-25T04:41:12;59.70;;;10.07;;
1479;SDS011;732;51.698;4.886;2024-01-25T04:43:42;52.10;;;10.30;;
1479;SDS011;732;51.698;4.886;2024-01-25T04:46:11;52.33;;;9.60;;
1479;SDS011;732;51.698;4.886;2024-01-25T04:48:40;46.30;;;8.33;;
1479;SDS011;732;51.698;4.886;2024-01-25T04:51:14;52.60;;;9.80;;
1479;SDS011;732;51.698;4.886;2024-01-25T04:53:43;65.53;;;9.53;;
1479;SDS011;732;51.698;4.886;2024-01-25T04:56:12;46.97;;;8.43;;
1479;SDS011;732;51.698;4.886;2024-01-25T04:58:42;48.87;;;8.70;;
1479;SDS011;732;51.698;4.886;2024-01-25T05:01:11;39.30;;;8.87;;
1479;SDS011;732;51.698;4.886;2024-01-25T05:03:39;47.10;;;9.80;;
1479;SDS011;732;51.698;4.886;2024-01-25T05:06:08;48.57;;;8.87;;
1479;SDS011;732;51.698;4.886;2024-01-25T05:08:36;58.17;;;8.67;;
1479;SDS011;732;51.698;4.886;2024-01-25T05:11:05;48.97;;;9.07;;
1479;SDS011;732;51.698;4.886;2024-01-25T05:13:35;45.77;;;9.03;;
1479;SDS011;732;51.698;4.886;2024-01-25T05:16:05;59.43;;;10.07;;
1479;SDS011;732;51.698;4.886;2024-01-25T05:18:34;54.57;;;10.60;;
1479;SDS011;732;51.698;4.886;2024-01-25T05:21:03;50.00;;;9.07;;
1479;SDS011;732;51.698;4.886;2024-01-25T05:23:31;44.07;;;9.23;;
1479;SDS011;732;51.698;4.886;2024-01-25T05:26:01;53.73;;;8.83;;
1479;SDS011;732;51.698;4.886;2024-01-25T05:28:30;52.90;;;8.83;;
1479;SDS011;732;51.698;4.886;2024-01-25T05:30:58;46.73;;;8.43;;
1479;SDS011;732;51.698;4.886;2024-01-25T05:33:32;43.00;;;8.43;;
1479;SDS011;732;51.698;4.886;2024-01-25T05:36:01;42.33;;;8.73;;
1479;SDS011;732;51.698;4.886;2024-01-25T05:38:29;51.70;;;9.90;;
1479;SDS011;732;51.698;4.886;2024-01-25T05:40:58;68.63;;;11.60;;
1479;SDS011;732;51.698;4.886;2024-01-25T05:43:27;53.77;;;11.23;;
1479;SDS011;732;51.698;4.886;2024-01-25T05:45:56;59.17;;;10.70;;
1479;SDS011;732;51.698;4.886;2024-01-25T05:48:25;47.60;;;9.20;;
1479;SDS011;732;51.698;4.886;2024-01-25T05:50:56;51.73;;;11.73;;
1479;SDS011;732;51.698;4.886;2024-01-25T05:53:24;54.77;;;9.67;;
1479;SDS011;732;51.698;4.886;2024-01-25T05:55:53;62.00;;;10.20;;
1479;SDS011;732;51.698;4.886;2024-01-25T05:58:21;57.17;;;12.90;;
1479;SDS011;732;51.698;4.886;2024-01-25T06:00:50;73.73;;;12.20;;
1479;SDS011;732;51.698;4.886;2024-01-25T06:03:19;78.73;;;11.23;;
1479;SDS011;732;51.698;4.886;2024-01-25T06:05:48;51.47;;;10.10;;
1479;SDS011;732;51.698;4.886;2024-01-25T06:08:18;61.30;;;11.80;;
1479;SDS011;732;51.698;4.886;2024-01-25T06:10:47;67.97;;;13.33;;
1479;SDS011;732;51.698;4.886;2024-01-25T06:13:16;48.53;;;10.50;;
1479;SDS011;732;51.698;4.886;2024-01-25T06:15:45;67.97;;;11.57;;
1479;SDS011;732;51.698;4.886;2024-01-25T06:18:14;66.97;;;12.70;;
1479;SDS011;732;51.698;4.886;2024-01-25T06:20:43;62.80;;;11.60;;
1479;SDS011;732;51.698;4.886;2024-01-25T06:23:12;54.17;;;12.07;;
1479;SDS011;732;51.698;4.886;2024-01-25T06:25:42;69.00;;;10.63;;
1479;SDS011;732;51.698;4.886;2024-01-25T06:28:10;66.17;;;11.47;;
1479;SDS011;732;51.698;4.886;2024-01-25T06:30:39;58.77;;;12.40;;
1479;SDS011;732;51.698;4.886;2024-01-25T06:33:08;82.03;;;13.97;;
1479;SDS011;732;51.698;4.886;2024-01-25T06:35:36;56.03;;;11.77;;
1479;SDS011;732;51.698;4.886;2024-01-25T06:38:05;70.50;;;13.33;;
1479;SDS011;732;51.698;4.886;2024-01-25T06:40:33;63.63;;;12.23;;
1479;SDS011;732;51.698;4.886;2024-01-25T06:43:04;53.73;;;11.40;;
1479;SDS011;732;51.698;4.886;2024-01-25T06:45:33;61.47;;;12.93;;
1479;SDS011;732;51.698;4.886;2024-01-25T06:48:01;65.18;;;15.73;;
1479;SDS011;732;51.698;4.886;2024-01-25T06:50:30;87.27;;;12.73;;
1479;SDS011;732;51.698;4.886;2024-01-25T06:52:59;69.87;;;13.40;;
1479;SDS011;732;51.698;4.886;2024-01-25T06:55:28;54.33;;;10.57;;
1479;SDS011;732;51.698;4.886;2024-01-25T06:57:56;62.20;;;12.17;;
1479;SDS011;732;51.698;4.886;2024-01-25T07:00:26;72.50;;;13.97;;
1479;SDS011;732;51.698;4.886;2024-01-25T07:02:55;76.40;;;13.23;;
1479;SDS011;732;51.698;4.886;2024-01-25T07:05:24;74.20;;;13.93;;
1479;SDS011;732;51.698;4.886;2024-01-25T07:07:53;52.67;;;10.73;;
1479;SDS011;732;51.698;4.886;2024-01-25T07:10:21;55.47;;;11.93;;
1479;SDS011;732;51.698;4.886;2024-01-25T07:12:50;63.07;;;11.53;;
1479;SDS011;732;51.698;4.886;2024-01-25T07:15:20;63.03;;;12.17;;
1479;SDS011;732;51.698;4.886;2024-01-25T07:17:50;75.37;;;12.97;;
1479;SDS011;732;51.698;4.886;2024-01-25T07:20:18;53.43;;;12.60;;
1479;SDS011;732;51.698;4.886;2024-01-25T07:22:49;80.27;;;12.60;;
1479;SDS011;732;51.698;4.886;2024-01-25T07:25:18;63.70;;;12.77;;
1479;SDS011;732;51.698;4.886;2024-01-25T07:27:48;64.50;;;13.10;;
1479;SDS011;732;51.698;4.886;2024-01-25T07:30:17;55.13;;;11.70;;
1479;SDS011;732;51.698;4.886;2024-01-25T07:32:45;73.60;;;13.27;;
1479;SDS011;732;51.698;4.886;2024-01-25T07:35:17;85.80;;;13.07;;
1479;SDS011;732;51.698;4.886;2024-01-25T07:37:46;69.70;;;13.57;;
1479;SDS011;732;51.698;4.886;2024-01-25T07:40:15;67.07;;;12.40;;
1479;SDS011;732;51.698;4.886;2024-01-25T07:42:44;68.07;;;12.57;;
1479;SDS011;732;51.698;4.886;2024-01-25T07:45:15;68.43;;;13.23;;
1479;SDS011;732;51.698;4.886;2024-01-25T07:47:43;62.87;;;12.90;;
1479;SDS011;732;51.698;4.886;2024-01-25T07:50:12;64.07;;;13.27;;
1479;SDS011;732;51.698;4.886;2024-01-25T07:52:42;67.87;;;13.30;;
1479;SDS011;732;51.698;4.886;2024-01-25T07:55:10;60.47;;;14.23;;
1479;SDS011;732;51.698;4.886;2024-01-25T07:57:39;71.87;;;14.33;;
1479;SDS011;732;51.698;4.886;2024-01-25T08:00:08;64.80;;;13.70;;
1479;SDS011;732;51.698;4.886;2024-01-25T08:02:37;64.97;;;13.30;;
1479;SDS011;732;51.698;4.886;2024-01-25T08:05:08;70.10;;;14.00;;
1479;SDS011;732;51.698;4.886;2024-01-25T08:07:37;61.70;;;13.20;;
1479;SDS011;732;51.698;4.886;2024-01-25T08:10:08;66.73;;;13.20;;
1479;SDS011;732;51.698;4.886;2024-01-25T08:12:36;63.57;;;13.90;;
1479;SDS011;732;51.698;4.886;2024-01-25T08:15:13;80.27;;;14.50;;
1479;SDS011;732;51.698;4.886;2024-01-25T08:17:42;62.87;;;14.20;;
1479;SDS011;732;51.698;4.886;2024-01-25T08:20:11;72.57;;;15.10;;
1479;SDS011;732;51.698;4.886;2024-01-25T08:22:40;65.93;;;14.90;;
1479;SDS011;732;51.698;4.886;2024-01-25T08:25:11;66.43;;;15.33;;
1479;SDS011;732;51.698;4.886;2024-01-25T08:27:40;65.23;;;15.90;;
1479;SDS011;732;51.698;4.886;2024-01-25T08:30:09;57.10;;;14.57;;
1479;SDS011;732;51.698;4.886;2024-01-25T08:32:38;62.83;;;15.73;;
1479;SDS011;732;51.698;4.886;2024-01-25T08:35:07;73.93;;;15.40;;
1479;SDS011;732;51.698;4.886;2024-01-25T08:37:37;61.40;;;15.90;;
1479;SDS011;732;51.698;4.886;2024-01-25T08:40:07;58.03;;;16.53;;
1479;SDS011;732;51.698;4.886;2024-01-25T08:42:38;81.20;;;16.27;;
1479;SDS011;732;51.698;4.886;2024-01-25T08:45:07;68.27;;;15.77;;
1479;SDS011;732;51.698;4.886;2024-01-25T08:47:38;57.70;;;16.83;;
1479;SDS011;732;51.698;4.886;2024-01-25T08:50:08;66.93;;;16.60;;
1479;SDS011;732;51.698;4.886;2024-01-25T08:52:39;62.83;;;16.27;;
1479;SDS011;732;51.698;4.886;2024-01-25T08:55:08;77.13;;;17.43;;
1479;SDS011;732;51.698;4.886;2024-01-25T08:57:38;67.40;;;17.37;;
1479;SDS011;732;51.698;4.886;2024-01-25T09:00:08;70.23;;;18.00;;
1479;SDS011;732;51.698;4.886;2024-01-25T09:02:38;73.83;;;18.70;;
1479;SDS011;732;51.698;4.886;2024-01-25T09:05:07;100.03;;;20.17;;
1479;SDS011;732;51.698;4.886;2024-01-25T09:07:36;81.77;;;19.50;;
1479;SDS011;732;51.698;4.886;2024-01-25T09:10:06;63.70;;;19.17;;
1479;SDS011;732;51.698;4.886;2024-01-25T09:12:36;93.37;;;22.03;;
1479;SDS011;732;51.698;4.886;2024-01-25T09:15:07;68.80;;;21.77;;
1479;SDS011;732;51.698;4.886;2024-01-25T09:17:36;79.10;;;20.70;;
1479;SDS011;732;51.698;4.886;2024-01-25T09:20:07;67.83;;;19.70;;
1479;SDS011;732;51.698;4.886;2024-01-25T09:22:37;79.40;;;21.17;;
1479;SDS011;732;51.698;4.886;2024-01-25T09:25:06;72.07;;;22.23;;
1479;SDS011;732;51.698;4.886;2024-01-25T09:27:36;77.80;;;19.83;;
1479;SDS011;732;51.698;4.886;2024-01-25T09:30:07;73.20;;;19.97;;
1479;SDS011;732;51.698;4.886;2024-01-25T09:32:37;61.77;;;20.27;;
1479;SDS011;732;51.698;4.886;2024-01-25T09:35:06;66.87;;;19.60;;
1479;SDS011;732;51.698;4.886;2024-01-25T09:37:36;63.27;;;17.57;;
1479;SDS011;732;51.698;4.886;2024-01-25T09:40:05;59.07;;;18.73;;
1479;SDS011;732;51.698;4.886;2024-01-25T09:42:36;61.17;;;19.20;;
1479;SDS011;732;51.698;4.886;2024-01-25T09:45:07;69.07;;;20.87;;
1479;SDS011;732;51.698;4.886;2024-01-25T09:47:39;68.77;;;19.23;;
1479;SDS011;732;51.698;4.886;2024-01-25T09:50:08;59.13;;;18.27;;
1479;SDS011;732;51.698;4.886;2024-01-25T09:52:38;70.47;;;19.77;;
1479;SDS011;732;51.698;4.886;2024-01-25T09:55:07;73.03;;;19.77;;
1479;SDS011;732;51.698;4.886;2024-01-25T09:57:40;71.97;;;16.80;;
1479;SDS011;732;51.698;4.886;2024-01-25T10:00:14;57.47;;;20.03;;
1479;SDS011;732;51.698;4.886;2024-01-25T10:02:44;73.33;;;18.07;;
1479;SDS011;732;51.698;4.886;2024-01-25T10:05:14;67.80;;;19.77;;
1479;SDS011;732;51.698;4.886;2024-01-25T10:07:44;68.90;;;17.37;;
1479;SDS011;732;51.698;4.886;2024-01-25T10:10:14;64.13;;;19.90;;
1479;SDS011;732;51.698;4.886;2024-01-25T10:12:43;56.00;;;19.70;;
1479;SDS011;732;51.698;4.886;2024-01-25T10:15:11;56.73;;;20.60;;
1479;SDS011;732;51.698;4.886;2024-01-25T10:17:41;61.73;;;21.17;;
1479;SDS011;732;51.698;4.886;2024-01-25T10:20:30;79.97;;;19.97;;
1479;SDS011;732;51.698;4.886;2024-01-25T10:23:00;78.97;;;21.20;;
1479;SDS011;732;51.698;4.886;2024-01-25T10:25:29;69.40;;;20.47;;
1479;SDS011;732;51.698;4.886;2024-01-25T10:28:00;72.00;;;20.83;;
1479;SDS011;732;51.698;4.886;2024-01-25T10:30:32;61.03;;;19.87;;
1479;SDS011;732;51.698;4.886;2024-01-25T10:33:04;51.87;;;19.73;;
1479;SDS011;732;51.698;4.886;2024-01-25T10:35:33;50.80;;;18.37;;
1479;SDS011;732;51.698;4.886;2024-01-25T10:38:04;57.60;;;18.20;;
1479;SDS011;732;51.698;4.886;2024-01-25T10:40:33;62.43;;;19.10;;
1479;SDS011;732;51.698;4.886;2024-01-25T10:43:03;59.97;;;17.83;;
1479;SDS011;732;51.698;4.886;2024-01-25T10:45:34;63.60;;;18.63;;
1479;SDS011;732;51.698;4.886;2024-01-25T10:48:03;60.00;;;17.13;;
1479;SDS011;732;51.698;4.886;2024-01-25T10:50:32;58.37;;;17.63;;
1479;SDS011;732;51.698;4.886;2024-01-25T10:53:01;60.53;;;18.93;;
1479;SDS011;732;51.698;4.886;2024-01-25T10:55:31;68.20;;;18.77;;
1479;SDS011;732;51.698;4.886;2024-01-25T10:58:00;68.63;;;17.70;;
1479;SDS011;732;51.698;4.886;2024-01-25T11:00:31;60.77;;;16.57;;
1479;SDS011;732;51.698;4.886;2024-01-25T11:03:02;57.83;;;17.60;;
1479;SDS011;732;51.698;4.886;2024-01-25T11:05:33;59.30;;;18.27;;
1479;SDS011;732;51.698;4.886;2024-01-25T11:08:03;52.63;;;16.00;;
1479;SDS011;732;51.698;4.886;2024-01-25T11:10:34;48.23;;;16.57;;
1479;SDS011;732;51.698;4.886;2024-01-25T11:13:04;36.70;;;14.87;;
1479;SDS011;732;51.698;4.886;2024-01-25T11:15:41;61.93;;;16.70;;
1479;SDS011;732;51.698;4.886;2024-01-25T11:18:11;51.67;;;16.00;;
1479;SDS011;732;51.698;4.886;2024-01-25T11:20:40;67.20;;;16.00;;
1479;SDS011;732;51.698;4.886;2024-01-25T11:23:10;60.80;;;16.40;;
1479;SDS011;732;51.698;4.886;2024-01-25T11:25:44;61.23;;;16.33;;
1479;SDS011;732;51.698;4.886;2024-01-25T11:28:15;43.50;;;14.00;;
1479;SDS011;732;51.698;4.886;2024-01-25T11:30:43;52.73;;;15.23;;
1479;SDS011;732;51.698;4.886;2024-01-25T11:33:15;42.30;;;14.50;;
1479;SDS011;732;51.698;4.886;2024-01-25T11:35:53;55.37;;;16.33;;
1479;SDS011;732;51.698;4.886;2024-01-25T11:38:22;52.33;;;14.90;;
1479;SDS011;732;51.698;4.886;2024-01-25T11:40:51;44.07;;;15.40;;
1479;SDS011;732;51.698;4.886;2024-01-25T11:43:19;54.47;;;15.07;;
1479;SDS011;732;51.698;4.886;2024-01-25T11:45:48;50.33;;;15.13;;
1479;SDS011;732;51.698;4.886;2024-01-25T11:48:19;42.20;;;13.70;;
1479;SDS011;732;51.698;4.886;2024-01-25T11:50:48;45.70;;;13.47;;
1479;SDS011;732;51.698;4.886;2024-01-25T11:53:17;37.60;;;13.37;;
1479;SDS011;732;51.698;4.886;2024-01-25T11:55:45;54.43;;;15.60;;
1479;SDS011;732;51.698;4.886;2024-01-25T11:58:14;70.73;;;16.60;;
1479;SDS011;732;51.698;4.886;2024-01-25T12:00:43;49.87;;;14.20;;
1479;SDS011;732;51.698;4.886;2024-01-25T12:03:11;45.53;;;13.07;;
1479;SDS011;732;51.698;4.886;2024-01-25T12:05:42;40.10;;;12.50;;
1479;SDS011;732;51.698;4.886;2024-01-25T12:08:12;44.10;;;13.67;;
1479;SDS011;732;51.698;4.886;2024-01-25T12:10:42;51.63;;;14.00;;
1479;SDS011;732;51.698;4.886;2024-01-25T12:13:10;54.00;;;14.23;;
1479;SDS011;732;51.698;4.886;2024-01-25T12:15:40;38.97;;;12.10;;
1479;SDS011;732;51.698;4.886;2024-01-25T12:18:09;46.70;;;12.13;;
1479;SDS011;732;51.698;4.886;2024-01-25T12:20:38;44.43;;;12.73;;
1479;SDS011;732;51.698;4.886;2024-01-25T12:23:09;53.33;;;13.70;;
1479;SDS011;732;51.698;4.886;2024-01-25T12:25:38;46.97;;;13.77;;
1479;SDS011;732;51.698;4.886;2024-01-25T12:28:09;38.60;;;11.53;;
1479;SDS011;732;51.698;4.886;2024-01-25T12:30:38;48.07;;;11.60;;
1479;SDS011;732;51.698;4.886;2024-01-25T12:33:06;39.50;;;12.37;;
1479;SDS011;732;51.698;4.886;2024-01-25T12:35:35;40.77;;;10.87;;
1479;SDS011;732;51.698;4.886;2024-01-25T12:38:04;44.97;;;11.40;;
1479;SDS011;732;51.698;4.886;2024-01-25T12:40:36;38.00;;;11.17;;
1479;SDS011;732;51.698;4.886;2024-01-25T12:43:05;48.43;;;11.60;;
1479;SDS011;732;51.698;4.886;2024-01-25T12:45:35;41.73;;;10.70;;
1479;SDS011;732;51.698;4.886;2024-01-25T12:48:04;53.03;;;10.57;;
1479;SDS011;732;51.698;4.886;2024-01-25T12:50:34;43.13;;;11.27;;
1479;SDS011;732;51.698;4.886;2024-01-25T12:53:04;36.23;;;10.57;;
1479;SDS011;732;51.698;4.886;2024-01-25T12:55:34;40.17;;;10.90;;
1479;SDS011;732;51.698;4.886;2024-01-25T12:58:05;46.43;;;12.57;;
1479;SDS011;732;51.698;4.886;2024-01-25T13:00:34;50.60;;;11.80;;
1479;SDS011;732;51.698;4.886;2024-01-25T13:03:03;50.80;;;11.90;;
1479;SDS011;732;51.698;4.886;2024-01-25T13:05:33;49.90;;;13.17;;
1479;SDS011;732;51.698;4.886;2024-01-25T13:08:02;37.50;;;11.93;;
1479;SDS011;732;51.698;4.886;2024-01-25T13:10:31;44.67;;;12.80;;
1479;SDS011;732;51.698;4.886;2024-01-25T13:13:00;51.03;;;13.90;;
1479;SDS011;732;51.698;4.886;2024-01-25T13:15:35;46.57;;;13.80;;
1479;SDS011;732;51.698;4.886;2024-01-25T13:18:39;51.17;;;14.10;;
1479;SDS011;732;51.698;4.886;2024-01-25T13:21:54;40.80;;;14.97;;
1479;SDS011;732;51.698;4.886;2024-01-25T13:24:22;60.47;;;16.47;;
1479;SDS011;732;51.698;4.886;2024-01-25T13:26:51;48.17;;;15.80;;
1479;SDS011;732;51.698;4.886;2024-01-25T13:29:20;55.00;;;16.97;;
1479;SDS011;732;51.698;4.886;2024-01-25T13:31:49;53.10;;;17.93;;
1479;SDS011;732;51.698;4.886;2024-01-25T13:34:18;42.83;;;17.10;;
1479;SDS011;732;51.698;4.886;2024-01-25T13:36:47;37.97;;;16.07;;
1479;SDS011;732;51.698;4.886;2024-01-25T13:39:16;49.53;;;17.27;;
1479;SDS011;732;51.698;4.886;2024-01-25T13:41:44;40.67;;;17.10;;
1479;SDS011;732;51.698;4.886;2024-01-25T13:44:14;45.67;;;17.33;;
1479;SDS011;732;51.698;4.886;2024-01-25T13:46:44;56.07;;;18.37;;
1479;SDS011;732;51.698;4.886;2024-01-25T13:49:13;44.43;;;18.83;;
1479;SDS011;732;51.698;4.886;2024-01-25T13:51:43;46.20;;;18.87;;
1479;SDS011;732;51.698;4.886;2024-01-25T13:54:14;49.50;;;19.90;;
1479;SDS011;732;51.698;4.886;2024-01-25T13:56:43;47.37;;;20.30;;
1479;SDS011;732;51.698;4.886;2024-01-25T13:59:12;52.00;;;21.27;;
1479;SDS011;732;51.698;4.886;2024-01-25T14:01:40;69.73;;;23.10;;
1479;SDS011;732;51.698;4.886;2024-01-25T14:04:10;53.00;;;22.07;;
1479;SDS011;732;51.698;4.886;2024-01-25T14:06:41;55.07;;;22.80;;
1479;SDS011;732;51.698;4.886;2024-01-25T14:09:10;52.17;;;21.30;;
1479;SDS011;732;51.698;4.886;2024-01-25T14:11:39;64.63;;;23.20;;
1479;SDS011;732;51.698;4.886;2024-01-25T14:14:08;50.13;;;19.73;;
1479;SDS011;732;51.698;4.886;2024-01-25T14:16:36;63.27;;;22.30;;
1479;SDS011;732;51.698;4.886;2024-01-25T14:19:05;55.40;;;20.13;;
1479;SDS011;732;51.698;4.886;2024-01-25T14:21:36;57.50;;;23.67;;
1479;SDS011;732;51.698;4.886;2024-01-25T14:24:05;61.53;;;22.00;;
1479;SDS011;732;51.698;4.886;2024-01-25T14:26:33;50.40;;;23.33;;
1479;SDS011;732;51.698;4.886;2024-01-25T14:29:02;89.33;;;24.90;;
1479;SDS011;732;51.698;4.886;2024-01-25T14:31:31;70.20;;;27.70;;
1479;SDS011;732;51.698;4.886;2024-01-25T14:34:00;80.67;;;25.90;;
1479;SDS011;732;51.698;4.886;2024-01-25T14:36:28;67.03;;;23.70;;
1479;SDS011;732;51.698;4.886;2024-01-25T14:38:58;84.53;;;28.50;;
1479;SDS011;732;51.698;4.886;2024-01-25T14:41:28;68.70;;;26.47;;
1479;SDS011;732;51.698;4.886;2024-01-25T14:43:57;74.80;;;28.10;;
1479;SDS011;732;51.698;4.886;2024-01-25T14:46:27;67.47;;;25.23;;
1479;SDS011;732;51.698;4.886;2024-01-25T14:48:55;75.83;;;27.83;;
1479;SDS011;732;51.698;4.886;2024-01-25T14:51:24;78.47;;;27.20;;
1479;SDS011;732;51.698;4.886;2024-01-25T14:53:53;79.63;;;27.87;;
1479;SDS011;732;51.698;4.886;2024-01-25T14:56:23;90.33;;;28.67;;
1479;SDS011;732;51.698;4.886;2024-01-25T14:58:52;78.20;;;28.30;;
1479;SDS011;732;51.698;4.886;2024-01-25T15:01:21;77.87;;;28.13;;
1479;SDS011;732;51.698;4.886;2024-01-25T15:03:54;67.63;;;26.60;;
1479;SDS011;732;51.698;4.886;2024-01-25T15:06:24;76.83;;;27.57;;
1479;SDS011;732;51.698;4.886;2024-01-25T15:08:53;71.03;;;28.30;;
1479;SDS011;732;51.698;4.886;2024-01-25T15:11:23;88.70;;;28.60;;
1479;SDS011;732;51.698;4.886;2024-01-25T15:13:51;83.80;;;28.40;;
1479;SDS011;732;51.698;4.886;2024-01-25T15:16:20;77.00;;;27.00;;
1479;SDS011;732;51.698;4.886;2024-01-25T15:18:48;68.73;;;26.87;;
1479;SDS011;732;51.698;4.886;2024-01-25T15:21:17;66.60;;;26.43;;